Platzwetter Flugplatz Wels

Flugwetter Linz LOWL

[Quelle: ADDS]
METAR
LOWL 060750Z 09005KT CAVOK M01/M05 Q1033 NOSIG =
LOWL 060515Z 0606/0706 09005KT CAVOK TX06/0615Z TNM06/0705Z TEMPO 0610/0616 11012KT 9999 FEW030 PROB30 TEMPO 0703/0706 VRB02KT 4000 MIFG
TAF
LOWL 060515Z 0606/0706 09005KT CAVOK TX06/0615Z TNM06/0705Z TEMPO 0610/0616 11012KT 9999 FEW030 PROB30 TEMPO 0703/0706 VRB02KT 4000 MIFG =

Flugwetter Salzburg LOWS

[Quelle: ADDS]
METAR
LOWS 060750Z VRB01KT 9999 FEW020 00/M02 Q1031 NOSIG =
LOWS 060515Z 0606/0706 30005KT 9999 SCT045 TX06/0615Z TNM05/0703Z BECMG 0608/0610 05006KT CAVOK BECMG 0618/0620 15005KT
TAF
LOWS 060515Z 0606/0706 30005KT 9999 SCT045 TX06/0615Z TNM05/0703Z BECMG 0608/0610 05006KT CAVOK BECMG 0618/0620 15005KT =

Wind - Verlauf

Windrichtung - Verlauf

Temperatur - Verlauf

Relative Luftfeuchtigkeit - Verlauf

Luftdruck - Verlauf

Wir nutzen Cookies auf unserer Website. Einige von ihnen sind essenziell für den Betrieb der Seite, während andere uns helfen, diese Website und die Nutzererfahrung zu verbessern (Tracking Cookies). Sie können selbst entscheiden, ob Sie die Cookies zulassen möchten. Bitte beachten Sie, dass bei einer Ablehnung womöglich nicht mehr alle Funktionalitäten der Seite zur Verfügung stehen.